Thunder radar more information blitzortung!


avis per Pluja more information rain snow radar


Visita la nostra xarxa de llocs de meteo:

Template documentation
and downloads

And another site



Rain From: 17-10-2018 23:00 Until: 18-10-2018 16:59 warning for: Rain Level: Yellow info button

Pagina Historial Weather Underground text

Diari Resum Abril 28, 2016 Unitats:  Mètric    Imperial   Tant
« Previous Dia
SegĂźent Dia »
Diari Setmana Mensual Anual Personalitzada
  Maxima: Minima: Media:
Temperatura: -17.8 °C -12.6 °C -11.7 °C
Punt de rosada: -17.8 °C -14.1 °C -13.3 °C
Humitat: Humidity % 77 % 82 %
Wind Speed: 0 km/h 0 km/h 6.3 km/h
RĂ fegues de vent: 0 km/h - -
Vent:- - South
Pression baro: 0 hPa 34293.4 hPa -
Precipitacions: 187.96 mm    
Historical Graphs
 
 
Dades de taula per Abril 28, 2016
Temps Temperatura Punt de rosada Pression baro Vent Wind Speed RĂ fegues de vent Humitat Rainfall Rate (Hourly)
-17.8 °C -17.8 °C 0 hPa Calm     Humidity % 0 mm
00:02 -11.9 °C -14 °C 34327.3 hPa East 6.3 km/h 6.3 km/h 78 % 0 mm
00:05 -12.4 °C -13.8 °C 34327.3 hPa ENE 5.1 km/h 7.7 km/h 84 % 0 mm
00:15 -12.4 °C -13.8 °C 34327.3 hPa ENE 5.1 km/h 12.9 km/h 84 % 0 mm
00:25 -12.3 °C -13.8 °C 34327.3 hPa ENE 2.6 km/h 5.1 km/h 84 % 0 mm
00:35 -12.4 °C -13.8 °C 34327.3 hPa ENE 5.1 km/h 7.7 km/h 84 % 0 mm
00:45 -12.4 °C -13.8 °C 34327.3 hPa NE 7.7 km/h 7.7 km/h 84 % 0 mm
00:55 -12.4 °C -13.8 °C 34327.3 hPa NE 5.1 km/h 10.3 km/h 84 % 0 mm
01:05 -12.4 °C -13.9 °C 34327.3 hPa NE 7.7 km/h 10.3 km/h 84 % 0 mm
01:15 -12.4 °C -13.9 °C 34327.3 hPa ENE 7.7 km/h 10.3 km/h 84 % 0 mm
01:25 -12.4 °C -13.9 °C 34327.3 hPa ENE 7.7 km/h 12.9 km/h 84 % 0 mm
01:35 -12.4 °C -13.9 °C 34327.3 hPa ENE 7.7 km/h 12.9 km/h 84 % 0 mm
01:45 -12.4 °C -13.9 °C 34327.3 hPa ENE 7.7 km/h 10.3 km/h 84 % 0 mm
01:55 -12.4 °C -13.8 °C 34327.3 hPa ENE 2.6 km/h 7.7 km/h 85 % 0 mm
02:05 -12.4 °C -13.8 °C 34327.3 hPa ENE 5.1 km/h 10.3 km/h 85 % 0 mm
02:15 -12.4 °C -13.8 °C 34327.3 hPa NE 5.1 km/h 7.7 km/h 85 % 0 mm
02:35 -12.4 °C -13.7 °C 34327.3 hPa ENE 2.6 km/h 7.7 km/h 86 % 0 mm
02:55 -12.4 °C -13.5 °C 34327.3 hPa ENE 2.6 km/h 5.1 km/h 87 % 0 mm
03:05 -12.3 °C -13.5 °C 34293.4 hPa ENE 7.7 km/h 10.3 km/h 87 % 0 mm
03:15 -12.3 °C -13.5 °C 34327.3 hPa ENE 7.7 km/h 7.7 km/h 87 % 0 mm
03:25 -12.3 °C -13.6 °C 34327.3 hPa ENE 2.6 km/h 15.6 km/h 86 % 0 mm
03:35 -12.4 °C -13.7 °C 34327.3 hPa ENE 7.7 km/h 12.9 km/h 86 % 0 mm
03:45 -12.4 °C -13.7 °C 34361.1 hPa ENE 2.6 km/h 7.7 km/h 86 % 0 mm
03:55 -12.4 °C -13.7 °C 34361.1 hPa ENE 7.7 km/h 10.3 km/h 86 % 0 mm
04:05 -12.4 °C -13.7 °C 34361.1 hPa ENE 5.1 km/h 7.7 km/h 86 % 0 mm
04:15 -12.3 °C -13.6 °C 34327.3 hPa East 7.7 km/h 10.3 km/h 86 % 0 mm
04:25 -12.3 °C -13.6 °C 34327.3 hPa East 5.1 km/h 10.3 km/h 86 % 0 mm
04:35 -12.3 °C -13.5 °C 34361.1 hPa East 5.1 km/h 5.1 km/h 86 % 0 mm
04:45 -12.2 °C -13.4 °C 34361.1 hPa East 7.7 km/h 7.7 km/h 86 % 0 mm
04:55 -12.3 °C -13.6 °C 34361.1 hPa East 7.7 km/h 10.3 km/h 85 % 0 mm
05:05 -12.2 °C -13.6 °C 34361.1 hPa East 2.6 km/h 5.1 km/h 85 % 0 mm
05:15 -12.2 °C -13.6 °C 34361.1 hPa ENE 2.6 km/h 7.7 km/h 85 % 0 mm
05:25 -12.2 °C -13.6 °C 34361.1 hPa NE 2.6 km/h 7.7 km/h 85 % 0 mm
05:35 -12.2 °C -13.6 °C 34395 hPa ENE 2.6 km/h 7.7 km/h 85 % 0 mm
05:45 -12.2 °C -13.6 °C 34361.1 hPa SSE 7.7 km/h 10.3 km/h 85 % 0 mm
05:55 -12.2 °C -13.4 °C 34361.1 hPa ESE 5.1 km/h 10.3 km/h 86 % 0 mm
06:05 -12.2 °C -13.4 °C 34395 hPa East 2.6 km/h 5.1 km/h 86 % 0 mm
06:15 -12.3 °C -13.5 °C 34395 hPa East 5.1 km/h 7.7 km/h 86 % 0 mm
11:22 -12.3 °C -13.6 °C 34395 hPa SW 6 km/h 6 km/h 86 % 160.02 mm
11:27 -12.3 °C -13.6 °C 34395 hPa ESE 6 km/h 6 km/h 86 % 160.02 mm
11:32 -12.3 °C -13.6 °C 34395 hPa ESE 6.3 km/h 6.3 km/h 86 % 160.02 mm
11:37 -12.3 °C -13.6 °C 34395 hPa ENE 9.3 km/h 9.3 km/h 86 % 160.02 mm
11:42 -12.3 °C -13.6 °C 34395 hPa East 6 km/h 6 km/h 86 % 160.02 mm
11:47 -12.3 °C -13.6 °C 34395 hPa ENE 6 km/h 6 km/h 86 % 160.02 mm
11:57 -12.2 °C -13.4 °C 34395 hPa ESE 6 km/h 6.3 km/h 86 % 187.96 mm
12:02 -12.2 °C -13.4 °C 34395 hPa SE 6 km/h 6 km/h 86 % 187.96 mm
12:07 -12.2 °C -13.4 °C 34395 hPa ESE 9 km/h 9 km/h 86 % 187.96 mm
12:12 -12.2 °C -13.3 °C 34395 hPa ESE 9 km/h 9 km/h 87 % 187.96 mm
12:17 -12.3 °C -13.4 °C 34395 hPa ESE 11.9 km/h 11.9 km/h 87 % 187.96 mm
12:27 -12.3 °C -13.6 °C 34395 hPa ENE 6 km/h 6 km/h 86 % 25.4 mm
12:32 -12.3 °C -13.5 °C 34395 hPa ENE 6 km/h 6 km/h 87 % 25.4 mm
12:37 -12.3 °C -13.5 °C 34395 hPa ENE 6.8 km/h 6.8 km/h 87 % 25.4 mm
12:42 -12.3 °C -13.5 °C 34395 hPa East 3.7 km/h 3.7 km/h 87 % 25.4 mm
12:47 -12.3 °C -13.4 °C 34395 hPa East 6 km/h 6 km/h 87 % 25.4 mm
12:52 -12.3 °C -13.4 °C 34395 hPa East 6 km/h 6.3 km/h 87 % 0 mm
12:57 -12.2 °C -13.4 °C 34395 hPa East 3.1 km/h 3.1 km/h 87 % 0 mm
13:02 -12.2 °C -13.3 °C 34395 hPa SE 6 km/h 6 km/h 87 % 0 mm
13:07 -12.2 °C -13.3 °C 34395 hPa ESE 6 km/h 6 km/h 87 % 0 mm
13:12 -12.2 °C -13.3 °C 34395 hPa ENE 6 km/h 6 km/h 87 % 0 mm
13:17 -12.1 °C -13.3 °C 34395 hPa SSE 9 km/h 9 km/h 87 % 0 mm
13:22 -12.1 °C -13.3 °C 34395 hPa ESE 9 km/h 9 km/h 87 % 0 mm
13:27 -12.2 °C -13.3 °C 34395 hPa East 9 km/h 9 km/h 87 % 0 mm
13:37 -12.2 °C -13.3 °C 34395 hPa ESE 9 km/h 9 km/h 87 % 0 mm
13:42 -12.1 °C -13.4 °C 34395 hPa East 9 km/h 9 km/h 86 % 0 mm
13:47 -12.1 °C -13.4 °C 34395 hPa ESE 9 km/h 9 km/h 86 % 0 mm
13:52 -12.1 °C -13.4 °C 34395 hPa East 9 km/h 9 km/h 86 % 0 mm
13:57 -11.9 °C -13.2 °C 34395 hPa ESE 6 km/h 6 km/h 86 % 0 mm
14:02 -11.8 °C -13.1 °C 34395 hPa ENE 4.2 km/h 4.2 km/h 86 % 0 mm
14:07 -11.8 °C -13.1 °C 34395 hPa ENE 3.1 km/h   86 % 0 mm
14:12 -11.7 °C -12.9 °C 34395 hPa ENE 3.1 km/h 3.1 km/h 86 % 0 mm
14:17 -11.7 °C -13.1 °C 34395 hPa WSW 6 km/h 6 km/h 85 % 0 mm
14:32 -11.7 °C -12.9 °C 34395 hPa SW 3.7 km/h   86 % 0 mm
14:37 -11.7 °C -13.1 °C 34395 hPa ESE 3.1 km/h 3.1 km/h 85 % 0 mm
14:42 -11.6 °C -12.9 °C 34395 hPa SW 4.2 km/h   85 % 0 mm
14:47 -11.5 °C -12.8 °C 34395 hPa SW 3.1 km/h 3.1 km/h 85 % 0 mm
14:52 -11.4 °C -12.8 °C 34395 hPa WSW 6.3 km/h 6.3 km/h 85 % 0 mm
14:57 -11.4 °C -12.7 °C 34361.1 hPa Calm     85 % 0 mm
15:02 -11.4 °C -12.7 °C 34361.1 hPa WSW 6 km/h   85 % 0 mm
15:07 -11.3 °C -12.7 °C 34361.1 hPa WSW 2.3 km/h   85 % 0 mm
15:12 -11.4 °C -12.8 °C 34395 hPa ESE 6 km/h 6 km/h 84 % 0 mm
15:17 -11.3 °C -12.8 °C 34395 hPa SSE 6 km/h   84 % 0 mm
15:22 -11.3 °C -12.7 °C 34395 hPa SW 6.3 km/h 6.3 km/h 84 % 0 mm
15:27 -11.3 °C -12.8 °C 34395 hPa WSW 11.9 km/h 11.9 km/h 84 % 0 mm
15:32 -11.3 °C -12.7 °C 34395 hPa WSW 3.1 km/h 3.7 km/h 84 % 0 mm
15:37 -11.2 °C -12.7 °C 34395 hPa SW 3.7 km/h 3.7 km/h 84 % 0 mm
15:42 -11.2 °C -12.6 °C 34395 hPa West 3.7 km/h 3.7 km/h 84 % 0 mm
15:47 -11.2 °C -12.6 °C 34395 hPa WSW 6 km/h 6 km/h 84 % 0 mm
15:52 -11.1 °C -12.5 °C 34395 hPa WNW 6 km/h 6 km/h 84 % 0 mm
15:57 -11 °C -12.6 °C 34395 hPa WSW 6 km/h 6 km/h 83 % 0 mm
16:02 -10.9 °C -12.6 °C 34395 hPa NE 6 km/h 6 km/h 82 % 0 mm
16:07 -10.9 °C -12.7 °C 34395 hPa NE 3.1 km/h   81 % 0 mm
16:12 -10.6 °C -12.4 °C 34361.1 hPa WSW 6 km/h 6 km/h 81 % 0 mm
16:17 -10.6 °C -12.4 °C 34361.1 hPa West 6 km/h 6 km/h 80 % 0 mm
16:22 -10.6 °C -12.4 °C 34361.1 hPa SW 7.6 km/h 7.6 km/h 80 % 0 mm
16:27 -10.6 °C -12.6 °C 34395 hPa SW 9 km/h 9 km/h 79 % 0 mm
16:32 -10.6 °C -12.6 °C 34395 hPa WSW 6.8 km/h 6.8 km/h 78 % 0 mm
16:37 -10.6 °C -12.6 °C 34395 hPa NW 3.1 km/h 3.1 km/h 78 % 0 mm
16:42 -10.3 °C -12.4 °C 34395 hPa SSE 9 km/h 9 km/h 78 % 0 mm
16:47 -10.4 °C -12.6 °C 34395 hPa South 6 km/h 6 km/h 77 % 0 mm
16:57 -10.4 °C -12.4 °C 34395 hPa SW 8 km/h 8 km/h 78 % 0 mm
17:02 -10.4 °C -12.6 °C 34395 hPa SW 11.9 km/h 11.9 km/h 77 % 0 mm
17:07 -10.4 °C -12.6 °C 34395 hPa SSW 6 km/h 6 km/h 78 % 0 mm
17:12 -10.4 °C -12.4 °C 34395 hPa SW 7.6 km/h 7.6 km/h 78 % 0 mm
17:17 -10.4 °C -12.4 °C 34395 hPa WSW 6 km/h 6.8 km/h 78 % 0 mm
17:22 -10.3 °C -12.4 °C 34395 hPa SW 6 km/h 6 km/h 78 % 0 mm
17:32 -10.1 °C -12.2 °C 34395 hPa SSW 3.7 km/h 3.7 km/h 78 % 0 mm
17:37 -10.3 °C -12.4 °C 34395 hPa SW 6 km/h 6 km/h 77 % 0 mm
17:42 -10.3 °C -12.6 °C 34361.1 hPa WSW 11.9 km/h 11.9 km/h 77 % 0 mm
17:47 -10.3 °C -12.6 °C 34361.1 hPa WSW 6.3 km/h   77 % 0 mm
17:52 -10.4 °C -12.6 °C 34361.1 hPa WNW 3.1 km/h   77 % 0 mm
17:57 -10.4 °C -12.6 °C 34395 hPa SW 6 km/h 6 km/h 77 % 0 mm
18:02 -10.4 °C -12.6 °C 34395 hPa WSW 5.6 km/h 5.6 km/h 77 % 0 mm
18:07 -10.4 °C -12.6 °C 34395 hPa SW 9 km/h 9 km/h 77 % 0 mm
18:12 -10.3 °C -12.6 °C 34395 hPa SW 9 km/h 9 km/h 77 % 0 mm
18:17 -10.4 °C -12.6 °C 34395 hPa SW 9 km/h 9 km/h 77 % 0 mm
18:22 -10.4 °C -12.6 °C 34395 hPa SW 9 km/h 9 km/h 77 % 0 mm
18:27 -10.4 °C -12.6 °C 34361.1 hPa SW 10.3 km/h 10.3 km/h 77 % 0 mm
18:32 -10.4 °C -12.6 °C 34361.1 hPa WSW 6.3 km/h 6.3 km/h 77 % 0 mm
18:37 -10.5 °C -12.7 °C 34361.1 hPa SSW 9.3 km/h 9.3 km/h 77 % 0 mm
18:42 -10.6 °C -12.7 °C 34361.1 hPa WSW 11.9 km/h 11.9 km/h 77 % 0 mm
18:47 -10.6 °C -12.8 °C 34361.1 hPa WSW 11.9 km/h 11.9 km/h 77 % 0 mm
18:52 -10.6 °C -12.8 °C 34361.1 hPa West 9 km/h 9 km/h 77 % 0 mm
18:57 -10.7 °C -12.8 °C 34395 hPa WSW 11.9 km/h 11.9 km/h 77 % 0 mm
19:02 -10.7 °C -12.8 °C 34395 hPa SSW 9 km/h 9 km/h 77 % 0 mm
19:07 -10.7 °C -12.8 °C 34395 hPa WSW 11.9 km/h 11.9 km/h 77 % 0 mm
19:12 -10.7 °C -12.9 °C 34395 hPa SW 14 km/h 14 km/h 77 % 0 mm
19:17 -10.7 °C -12.9 °C 34395 hPa SW 9 km/h 9 km/h 77 % 0 mm
19:22 -10.8 °C -12.9 °C 34395 hPa WSW 6 km/h 6 km/h 77 % 0 mm
19:25 -12.1 °C -13.7 °C 34462.7 hPa Calm     82 % 0 mm
19:27 -10.8 °C -12.9 °C 34361.1 hPa West 6 km/h 6.3 km/h 77 % 0 mm
19:32 -10.8 °C -13 °C 34361.1 hPa SW 6 km/h 6.3 km/h 77 % 0 mm
19:35 -12.2 °C -13.8 °C 34462.7 hPa Calm   2.6 km/h 82 % 0 mm
19:37 -10.9 °C -13.1 °C 34361.1 hPa WSW 11.9 km/h 11.9 km/h 77 % 0 mm
19:42 -10.9 °C -13.1 °C 34361.1 hPa WSW 11.1 km/h 11.1 km/h 77 % 0 mm
19:45 -12.3 °C -13.9 °C 34496.6 hPa WSW 2.6 km/h 7.7 km/h 82 % 0 mm
19:47 -10.9 °C -13.1 °C 34361.1 hPa WSW 11.9 km/h 11.9 km/h 77 % 0 mm
19:52 -10.9 °C -13.1 °C 34361.1 hPa SW 6 km/h 6 km/h 77 % 0 mm
19:55 -12.4 °C -14 °C 34496.6 hPa WSW 5.1 km/h 7.7 km/h 82 % 0 mm
19:57 -10.9 °C -13.1 °C 34395 hPa SW 9 km/h 9 km/h 77 % 0 mm
20:02 -10.9 °C -13.1 °C 34395 hPa West 11.9 km/h 11.9 km/h 77 % 0 mm
20:05 -12.4 °C -13.9 °C 34496.6 hPa SW 5.1 km/h 7.7 km/h 83 % 0 mm
20:07 -10.9 °C -13 °C 34395 hPa SW 9 km/h 9 km/h 78 % 0 mm
20:12 -11.1 °C -13.1 °C 34395 hPa SW 6 km/h 6 km/h 78 % 0 mm
20:15 -12.3 °C -13.8 °C 34496.6 hPa SW 5.1 km/h 7.7 km/h 83 % 0 mm
20:17 -11.1 °C -13.2 °C 34395 hPa WSW 9 km/h 9 km/h 78 % 0 mm
20:22 -11.2 °C -13.2 °C 34395 hPa WSW 6 km/h 6 km/h 78 % 0 mm
20:25 -12.3 °C -13.8 °C 34496.6 hPa WSW 5.1 km/h 7.7 km/h 83 % 0 mm
20:27 -11.2 °C -13.3 °C 34395 hPa SW 7.6 km/h 7.6 km/h 78 % 0 mm
20:32 -11.3 °C -13.2 °C 34395 hPa WSW 6 km/h 6 km/h 79 % 0 mm
20:35 -12.2 °C -13.8 °C 34496.6 hPa WSW 5.1 km/h 5.1 km/h 83 % 0 mm
20:37 -11.3 °C -13.2 °C 34395 hPa SW 9.3 km/h 9.3 km/h 79 % 0 mm
20:42 -11.3 °C -13.2 °C 34395 hPa SW 6.8 km/h 6.8 km/h 79 % 0 mm
20:45 -12.2 °C -13.7 °C 34496.6 hPa Calm   5.1 km/h 83 % 0 mm
20:47 -11.3 °C -13.2 °C 34395 hPa WSW 6 km/h 6 km/h 79 % 0 mm
20:52 -11.3 °C -13.2 °C 34395 hPa WSW 11.9 km/h 11.9 km/h 79 % 0 mm
20:55 -12.2 °C -13.6 °C 34496.6 hPa Calm     84 % 0 mm
20:57 -11.3 °C -13.2 °C 34395 hPa WSW 8.5 km/h 8.5 km/h 79 % 0 mm
21:02 -11.3 °C -13.3 °C 34395 hPa SW 7.6 km/h 7.6 km/h 79 % 0 mm
21:05 -12.2 °C -13.6 °C 34496.6 hPa Calm     84 % 0 mm
21:07 -11.3 °C -13.3 °C 34395 hPa WSW 9 km/h 9 km/h 79 % 0 mm
21:12 -11.3 °C -13.3 °C 34428.8 hPa SSW 9 km/h 9 km/h 79 % 0 mm
21:15 -12.1 °C -13.6 °C 34496.6 hPa Calm     84 % 0 mm
21:17 -11.3 °C -13.3 °C 34428.8 hPa SW 6 km/h 6 km/h 79 % 0 mm
21:22 -11.3 °C -13.3 °C 34428.8 hPa SW 6 km/h 6 km/h 79 % 0 mm
21:25 -12.1 °C -13.7 °C 34496.6 hPa Calm     83 % 0 mm
21:27 -11.3 °C -13.3 °C 34428.8 hPa SW 7.6 km/h 7.6 km/h 79 % 0 mm
21:32 -11.3 °C -13.3 °C 34428.8 hPa SW 6 km/h 6 km/h 79 % 0 mm
21:35 -12.1 °C -13.7 °C 34496.6 hPa Calm     83 % 0 mm
21:37 -11.4 °C -13.3 °C 34428.8 hPa SW 9 km/h 9 km/h 79 % 0 mm
21:42 -11.4 °C -13.2 °C 34462.7 hPa SSW 6 km/h 6.3 km/h 80 % 0 mm
21:45 -12.2 °C -13.7 °C 34496.6 hPa Calm   2.6 km/h 83 % 0 mm
21:47 -11.4 °C -13.2 °C 34462.7 hPa WSW 6 km/h 6 km/h 80 % 0 mm
21:52 -11.4 °C -13.2 °C 34462.7 hPa SW 9 km/h 9 km/h 80 % 0 mm
21:55 -12.2 °C -13.8 °C 34496.6 hPa SW 2.6 km/h 7.7 km/h 83 % 0 mm
21:57 -11.4 °C -13.2 °C 34462.7 hPa SW 9 km/h 9 km/h 80 % 0 mm
22:02 -11.4 °C -13.2 °C 34462.7 hPa SW 9 km/h 9 km/h 81 % 0 mm
22:05 -12.3 °C -13.8 °C 34496.6 hPa SW 2.6 km/h 5.1 km/h 83 % 0 mm
22:12 -11.4 °C -13.2 °C 34462.7 hPa WSW 9 km/h 9 km/h 81 % 0 mm
22:15 -12.2 °C -13.8 °C 34496.6 hPa SW 2.6 km/h 5.1 km/h 83 % 0 mm
22:17 -11.5 °C -13.2 °C 34462.7 hPa SSW 9 km/h 9 km/h 82 % 0 mm
22:22 -11.5 °C -13.2 °C 34462.7 hPa SW 9 km/h 9 km/h 82 % 0 mm
22:25 -12.2 °C -13.7 °C 34496.6 hPa Calm     84 % 0 mm
22:27 -11.5 °C -13.2 °C 34462.7 hPa WSW 11.9 km/h 11.9 km/h 82 % 0 mm
22:32 -11.5 °C -13.1 °C 34462.7 hPa SW 12.2 km/h 12.2 km/h 83 % 0 mm
22:35 -12.3 °C -13.8 °C 34496.6 hPa Calm     84 % 0 mm
22:37 -11.6 °C -13.1 °C 34462.7 hPa SSW 11.9 km/h 11.9 km/h 83 % 0 mm
22:42 -11.6 °C -13 °C 34462.7 hPa SW 15 km/h 15 km/h 84 % 0 mm
22:45 -12.4 °C -13.8 °C 34496.6 hPa WSW 2.6 km/h 5.1 km/h 84 % 0 mm
22:47 -11.6 °C -13.2 °C 34462.7 hPa SW 9 km/h 9 km/h 83 % 0 mm
22:52 -11.6 °C -13.2 °C 34462.7 hPa WSW 11.9 km/h 11.9 km/h 83 % 0 mm
22:55 -12.4 °C -13.9 °C 34496.6 hPa WSW 2.6 km/h 5.1 km/h 84 % 0 mm
22:57 -11.7 °C -13.2 °C 34462.7 hPa SW 6 km/h 6 km/h 83 % 0 mm
23:02 -11.7 °C -13.3 °C 34462.7 hPa SW 6 km/h 6 km/h 83 % 0 mm
23:05 -12.4 °C -13.9 °C 34462.7 hPa WSW 2.6 km/h 2.6 km/h 84 % 0 mm
23:08 -11.7 °C -13.3 °C 34462.7 hPa West 6.8 km/h 6.8 km/h 83 % 0 mm
23:13 -11.8 °C -13.3 °C 34462.7 hPa West 6 km/h 6 km/h 83 % 0 mm
23:15 -12.6 °C -14 °C 34462.7 hPa Calm   5.1 km/h 84 % 0 mm
23:18 -11.8 °C -13.3 °C 34462.7 hPa WSW 9 km/h 9 km/h 83 % 0 mm
23:23 -11.7 °C -13.3 °C 34462.7 hPa WSW 11.9 km/h 11.9 km/h 83 % 0 mm
23:25 -12.6 °C -14 °C 34462.7 hPa Calm     84 % 0 mm
23:28 -11.7 °C -13.3 °C 34462.7 hPa WSW 9 km/h 9 km/h 83 % 0 mm
23:33 -11.7 °C -13.3 °C 34462.7 hPa SW 9.8 km/h 9.8 km/h 83 % 0 mm
23:35 -12.6 °C -14.1 °C 34496.6 hPa Calm   5.1 km/h 84 % 0 mm
23:38 -11.7 °C -13.3 °C 34462.7 hPa West 9 km/h 9 km/h 83 % 0 mm
23:43 -11.7 °C -13.3 °C 34462.7 hPa West 9 km/h 9 km/h 83 % 0 mm
23:45 -12.6 °C -13.9 °C 34496.6 hPa Calm     85 % 0 mm
23:48 -11.7 °C -13.3 °C 34462.7 hPa West 9 km/h 9 km/h 83 % 0 mm
23:55 -12.6 °C -13.9 °C 34496.6 hPa Calm     85 % 0 mm
23:58 -11.8 °C -13.4 °C 34462.7 hPa WSW 6 km/h 6 km/h 82 % 0 mm
Meteo Sesrovires
Elogis d' Weather Underground - 1.5 mb

Guio original per  Jim McMurry - jmcmurry@mwt.net Adaptat per a la plantilla per  Wim van der Kuil - Leuven-Template.eu

Trobareu la nostra informacio del temps tambe a:

Weather Underground

AWEKAS